sensor_id;sensor_type;location;lat;lon;timestamp;temperature;humidity
42145;DHT22;27813;43.516;11.890;2023-11-21T00:00:14;11.40;99.00
42145;DHT22;27813;43.516;11.890;2023-11-21T00:04:19;11.40;98.90
42145;DHT22;27813;43.516;11.890;2023-11-21T00:08:27;11.50;98.90
42145;DHT22;27813;43.516;11.890;2023-11-21T00:12:32;11.60;98.90
42145;DHT22;27813;43.516;11.890;2023-11-21T00:16:37;11.50;98.90
42145;DHT22;27813;43.516;11.890;2023-11-21T00:20:41;11.60;98.90
42145;DHT22;27813;43.516;11.890;2023-11-21T00:24:45;11.60;98.90
42145;DHT22;27813;43.516;11.890;2023-11-21T00:28:50;11.70;98.90
42145;DHT22;27813;43.516;11.890;2023-11-21T00:32:54;11.70;98.80
42145;DHT22;27813;43.516;11.890;2023-11-21T00:36:58;11.70;98.80
42145;DHT22;27813;43.516;11.890;2023-11-21T00:41:02;11.70;98.80
42145;DHT22;27813;43.516;11.890;2023-11-21T00:45:06;11.80;98.80
42145;DHT22;27813;43.516;11.890;2023-11-21T00:49:11;11.80;98.90
42145;DHT22;27813;43.516;11.890;2023-11-21T00:53:15;11.90;98.90
42145;DHT22;27813;43.516;11.890;2023-11-21T00:57:19;12.00;99.00
42145;DHT22;27813;43.516;11.890;2023-11-21T01:01:23;12.00;99.00
42145;DHT22;27813;43.516;11.890;2023-11-21T01:05:27;12.00;98.90
42145;DHT22;27813;43.516;11.890;2023-11-21T01:09:31;12.00;98.90
42145;DHT22;27813;43.516;11.890;2023-11-21T01:13:35;12.00;98.90
42145;DHT22;27813;43.516;11.890;2023-11-21T01:17:40;12.00;98.90
42145;DHT22;27813;43.516;11.890;2023-11-21T01:21:45;12.00;98.80
42145;DHT22;27813;43.516;11.890;2023-11-21T01:25:49;12.00;98.80
42145;DHT22;27813;43.516;11.890;2023-11-21T01:29:55;12.00;98.80
42145;DHT22;27813;43.516;11.890;2023-11-21T01:33:59;12.00;98.80
42145;DHT22;27813;43.516;11.890;2023-11-21T01:38:04;12.00;98.80
42145;DHT22;27813;43.516;11.890;2023-11-21T01:42:08;12.00;98.80
42145;DHT22;27813;43.516;11.890;2023-11-21T01:46:12;12.00;98.70
42145;DHT22;27813;43.516;11.890;2023-11-21T01:50:18;11.90;98.60
42145;DHT22;27813;43.516;11.890;2023-11-21T01:54:22;11.80;98.50
42145;DHT22;27813;43.516;11.890;2023-11-21T01:58:26;11.70;98.50
42145;DHT22;27813;43.516;11.890;2023-11-21T02:02:30;11.80;98.60
42145;DHT22;27813;43.516;11.890;2023-11-21T02:06:34;11.80;98.70
42145;DHT22;27813;43.516;11.890;2023-11-21T02:10:38;11.90;98.80
42145;DHT22;27813;43.516;11.890;2023-11-21T02:14:42;11.90;98.80
42145;DHT22;27813;43.516;11.890;2023-11-21T02:18:48;11.90;98.70
42145;DHT22;27813;43.516;11.890;2023-11-21T02:22:55;11.90;98.80
42145;DHT22;27813;43.516;11.890;2023-11-21T02:27:04;11.90;98.70
42145;DHT22;27813;43.516;11.890;2023-11-21T02:31:10;11.90;98.60
42145;DHT22;27813;43.516;11.890;2023-11-21T02:35:17;11.80;98.60
42145;DHT22;27813;43.516;11.890;2023-11-21T02:39:21;11.80;98.70
42145;DHT22;27813;43.516;11.890;2023-11-21T02:43:26;11.80;98.70
42145;DHT22;27813;43.516;11.890;2023-11-21T02:47:30;11.80;98.60
42145;DHT22;27813;43.516;11.890;2023-11-21T02:51:34;11.60;98.50
42145;DHT22;27813;43.516;11.890;2023-11-21T02:55:38;11.50;98.40
42145;DHT22;27813;43.516;11.890;2023-11-21T02:59:43;11.50;98.40
42145;DHT22;27813;43.516;11.890;2023-11-21T03:03:48;11.50;98.50
42145;DHT22;27813;43.516;11.890;2023-11-21T03:07:55;11.60;98.70
42145;DHT22;27813;43.516;11.890;2023-11-21T03:12:01;11.70;98.70
42145;DHT22;27813;43.516;11.890;2023-11-21T03:16:09;11.80;98.80
42145;DHT22;27813;43.516;11.890;2023-11-21T03:20:15;11.90;98.80
42145;DHT22;27813;43.516;11.890;2023-11-21T03:24:20;11.80;98.80
42145;DHT22;27813;43.516;11.890;2023-11-21T03:28:26;11.80;98.70
42145;DHT22;27813;43.516;11.890;2023-11-21T03:32:33;11.80;98.70
42145;DHT22;27813;43.516;11.890;2023-11-21T03:36:39;11.90;98.70
42145;DHT22;27813;43.516;11.890;2023-11-21T03:40:44;11.80;98.70
42145;DHT22;27813;43.516;11.890;2023-11-21T03:44:48;11.80;98.70
42145;DHT22;27813;43.516;11.890;2023-11-21T03:48:52;11.80;98.60
42145;DHT22;27813;43.516;11.890;2023-11-21T03:52:59;11.70;98.70
42145;DHT22;27813;43.516;11.890;2023-11-21T03:57:05;11.80;98.70
42145;DHT22;27813;43.516;11.890;2023-11-21T04:01:15;11.80;98.80
42145;DHT22;27813;43.516;11.890;2023-11-21T04:05:23;11.90;98.80
42145;DHT22;27813;43.516;11.890;2023-11-21T04:09:28;12.00;98.90
42145;DHT22;27813;43.516;11.890;2023-11-21T04:13:32;12.00;98.90
42145;DHT22;27813;43.516;11.890;2023-11-21T04:17:37;12.00;98.90
42145;DHT22;27813;43.516;11.890;2023-11-21T04:21:43;12.00;98.80
42145;DHT22;27813;43.516;11.890;2023-11-21T04:25:48;12.00;98.60
42145;DHT22;27813;43.516;11.890;2023-11-21T04:29:53;11.90;98.60
42145;DHT22;27813;43.516;11.890;2023-11-21T04:33:57;11.90;98.60
42145;DHT22;27813;43.516;11.890;2023-11-21T04:38:02;11.90;98.60
42145;DHT22;27813;43.516;11.890;2023-11-21T04:42:06;12.00;98.70
42145;DHT22;27813;43.516;11.890;2023-11-21T04:46:11;12.00;98.70
42145;DHT22;27813;43.516;11.890;2023-11-21T04:50:15;12.00;98.70
42145;DHT22;27813;43.516;11.890;2023-11-21T04:54:20;12.00;98.60
42145;DHT22;27813;43.516;11.890;2023-11-21T04:58:29;11.90;98.60
42145;DHT22;27813;43.516;11.890;2023-11-21T05:02:35;11.80;98.50
42145;DHT22;27813;43.516;11.890;2023-11-21T05:06:39;11.70;98.40
42145;DHT22;27813;43.516;11.890;2023-11-21T05:10:44;11.70;98.30
42145;DHT22;27813;43.516;11.890;2023-11-21T05:14:50;11.50;98.30
42145;DHT22;27813;43.516;11.890;2023-11-21T05:18:54;11.60;98.50
42145;DHT22;27813;43.516;11.890;2023-11-21T05:23:05;11.60;98.50
42145;DHT22;27813;43.516;11.890;2023-11-21T05:27:10;11.60;98.50
42145;DHT22;27813;43.516;11.890;2023-11-21T05:31:14;11.70;98.60
42145;DHT22;27813;43.516;11.890;2023-11-21T05:35:20;11.70;98.70
42145;DHT22;27813;43.516;11.890;2023-11-21T05:39:25;11.70;98.70
42145;DHT22;27813;43.516;11.890;2023-11-21T05:43:31;11.80;98.70
42145;DHT22;27813;43.516;11.890;2023-11-21T05:47:42;11.80;98.70
42145;DHT22;27813;43.516;11.890;2023-11-21T05:51:49;12.00;98.80
42145;DHT22;27813;43.516;11.890;2023-11-21T05:55:54;12.00;98.80
42145;DHT22;27813;43.516;11.890;2023-11-21T05:59:59;12.00;98.80
42145;DHT22;27813;43.516;11.890;2023-11-21T06:04:05;12.00;98.80
42145;DHT22;27813;43.516;11.890;2023-11-21T06:08:09;12.00;98.80
42145;DHT22;27813;43.516;11.890;2023-11-21T06:12:15;12.10;98.80
42145;DHT22;27813;43.516;11.890;2023-11-21T06:16:20;12.00;98.70
42145;DHT22;27813;43.516;11.890;2023-11-21T06:20:27;12.00;98.70
42145;DHT22;27813;43.516;11.890;2023-11-21T06:24:31;12.10;98.80
42145;DHT22;27813;43.516;11.890;2023-11-21T06:28:36;12.10;98.80
42145;DHT22;27813;43.516;11.890;2023-11-21T06:32:41;12.20;98.80
42145;DHT22;27813;43.516;11.890;2023-11-21T06:36:46;12.20;98.80
42145;DHT22;27813;43.516;11.890;2023-11-21T06:40:51;12.20;98.70
42145;DHT22;27813;43.516;11.890;2023-11-21T06:44:57;12.20;98.70
42145;DHT22;27813;43.516;11.890;2023-11-21T06:49:02;12.20;98.70
42145;DHT22;27813;43.516;11.890;2023-11-21T06:53:08;12.10;98.60
42145;DHT22;27813;43.516;11.890;2023-11-21T06:57:16;12.00;98.50
42145;DHT22;27813;43.516;11.890;2023-11-21T07:01:21;12.00;98.60
42145;DHT22;27813;43.516;11.890;2023-11-21T07:05:26;12.00;98.60
42145;DHT22;27813;43.516;11.890;2023-11-21T07:09:32;12.00;98.60
42145;DHT22;27813;43.516;11.890;2023-11-21T07:13:37;12.00;98.70
42145;DHT22;27813;43.516;11.890;2023-11-21T07:17:41;12.10;98.80
42145;DHT22;27813;43.516;11.890;2023-11-21T07:21:47;12.10;98.80
42145;DHT22;27813;43.516;11.890;2023-11-21T07:25:55;12.20;98.90
42145;DHT22;27813;43.516;11.890;2023-11-21T07:30:05;12.30;98.90
42145;DHT22;27813;43.516;11.890;2023-11-21T07:34:12;12.40;99.00
42145;DHT22;27813;43.516;11.890;2023-11-21T07:38:17;12.50;99.00
42145;DHT22;27813;43.516;11.890;2023-11-21T07:42:23;12.70;99.00
42145;DHT22;27813;43.516;11.890;2023-11-21T07:46:34;12.80;99.10
42145;DHT22;27813;43.516;11.890;2023-11-21T07:50:38;13.10;99.30
42145;DHT22;27813;43.516;11.890;2023-11-21T07:54:43;13.50;99.40
42145;DHT22;27813;43.516;11.890;2023-11-21T07:58:48;14.00;99.50
42145;DHT22;27813;43.516;11.890;2023-11-21T08:02:56;14.40;99.60
42145;DHT22;27813;43.516;11.890;2023-11-21T08:07:02;14.70;99.60
42145;DHT22;27813;43.516;11.890;2023-11-21T08:11:07;14.90;99.60
42145;DHT22;27813;43.516;11.890;2023-11-21T08:15:14;15.10;99.60
42145;DHT22;27813;43.516;11.890;2023-11-21T08:19:23;15.40;99.60
42145;DHT22;27813;43.516;11.890;2023-11-21T08:23:31;15.50;99.60
42145;DHT22;27813;43.516;11.890;2023-11-21T08:27:36;15.70;99.50
42145;DHT22;27813;43.516;11.890;2023-11-21T08:31:41;15.70;99.20
42145;DHT22;27813;43.516;11.890;2023-11-21T08:35:47;15.70;99.00
42145;DHT22;27813;43.516;11.890;2023-11-21T08:39:53;15.70;98.80
42145;DHT22;27813;43.516;11.890;2023-11-21T08:43:57;15.70;98.60
42145;DHT22;27813;43.516;11.890;2023-11-21T08:48:04;15.70;98.40
42145;DHT22;27813;43.516;11.890;2023-11-21T08:52:09;15.70;98.30
42145;DHT22;27813;43.516;11.890;2023-11-21T08:56:16;15.80;98.40
42145;DHT22;27813;43.516;11.890;2023-11-21T09:00:21;15.90;98.40
42145;DHT22;27813;43.516;11.890;2023-11-21T09:04:26;16.00;98.50
42145;DHT22;27813;43.516;11.890;2023-11-21T09:08:31;16.20;98.40
42145;DHT22;27813;43.516;11.890;2023-11-21T09:12:36;16.30;98.30
42145;DHT22;27813;43.516;11.890;2023-11-21T09:16:41;16.50;98.30
42145;DHT22;27813;43.516;11.890;2023-11-21T09:20:49;16.50;98.10
42145;DHT22;27813;43.516;11.890;2023-11-21T09:24:54;16.60;97.80
42145;DHT22;27813;43.516;11.890;2023-11-21T09:29:00;16.60;97.80
42145;DHT22;27813;43.516;11.890;2023-11-21T09:33:06;16.80;97.90
42145;DHT22;27813;43.516;11.890;2023-11-21T09:37:11;17.00;98.00
42145;DHT22;27813;43.516;11.890;2023-11-21T09:41:34;17.10;97.80
42145;DHT22;27813;43.516;11.890;2023-11-21T09:45:39;17.20;97.50
42145;DHT22;27813;43.516;11.890;2023-11-21T09:49:48;17.10;97.30
42145;DHT22;27813;43.516;11.890;2023-11-21T09:54:03;17.20;97.40
42145;DHT22;27813;43.516;11.890;2023-11-21T09:58:10;17.10;97.30
42145;DHT22;27813;43.516;11.890;2023-11-21T10:02:19;16.90;97.10
42145;DHT22;27813;43.516;11.890;2023-11-21T10:06:26;16.80;97.40
42145;DHT22;27813;43.516;11.890;2023-11-21T10:10:32;16.80;97.60
42145;DHT22;27813;43.516;11.890;2023-11-21T10:14:37;17.00;98.10
42145;DHT22;27813;43.516;11.890;2023-11-21T10:18:48;17.30;98.30
42145;DHT22;27813;43.516;11.890;2023-11-21T10:22:54;17.60;98.20
42145;DHT22;27813;43.516;11.890;2023-11-21T10:27:04;17.90;97.90
42145;DHT22;27813;43.516;11.890;2023-11-21T10:31:08;18.10;97.70
42145;DHT22;27813;43.516;11.890;2023-11-21T10:35:15;18.20;97.40
42145;DHT22;27813;43.516;11.890;2023-11-21T10:39:20;18.20;96.90
42145;DHT22;27813;43.516;11.890;2023-11-21T10:43:27;18.10;96.70
42145;DHT22;27813;43.516;11.890;2023-11-21T10:47:33;18.00;96.70
42145;DHT22;27813;43.516;11.890;2023-11-21T10:51:43;18.00;97.00
42145;DHT22;27813;43.516;11.890;2023-11-21T10:55:48;18.00;97.00
42145;DHT22;27813;43.516;11.890;2023-11-21T10:59:54;17.90;96.90
42145;DHT22;27813;43.516;11.890;2023-11-21T11:04:01;17.80;96.90
42145;DHT22;27813;43.516;11.890;2023-11-21T11:08:12;17.70;97.00
42145;DHT22;27813;43.516;11.890;2023-11-21T11:12:19;17.70;97.10
42145;DHT22;27813;43.516;11.890;2023-11-21T11:16:24;17.70;97.20
42145;DHT22;27813;43.516;11.890;2023-11-21T11:20:36;17.70;97.20
42145;DHT22;27813;43.516;11.890;2023-11-21T11:29:23;17.50;97.20
42145;DHT22;27813;43.516;11.890;2023-11-21T11:38:04;17.50;97.40
42145;DHT22;27813;43.516;11.890;2023-11-21T11:42:15;17.50;97.40
42145;DHT22;27813;43.516;11.890;2023-11-21T11:46:20;17.60;97.50
42145;DHT22;27813;43.516;11.890;2023-11-21T11:50:27;17.80;97.60
42145;DHT22;27813;43.516;11.890;2023-11-21T11:54:37;18.00;97.70
42145;DHT22;27813;43.516;11.890;2023-11-21T11:58:42;18.20;97.60
42145;DHT22;27813;43.516;11.890;2023-11-21T12:02:49;18.50;97.60
42145;DHT22;27813;43.516;11.890;2023-11-21T12:06:57;18.60;97.50
42145;DHT22;27813;43.516;11.890;2023-11-21T12:11:05;18.80;97.20
42145;DHT22;27813;43.516;11.890;2023-11-21T12:15:10;18.90;97.00
42145;DHT22;27813;43.516;11.890;2023-11-21T12:19:15;19.00;97.00
42145;DHT22;27813;43.516;11.890;2023-11-21T12:23:20;19.00;96.80
42145;DHT22;27813;43.516;11.890;2023-11-21T12:27:26;19.00;96.60
42145;DHT22;27813;43.516;11.890;2023-11-21T12:31:30;19.00;96.60
42145;DHT22;27813;43.516;11.890;2023-11-21T12:35:38;18.90;96.70
42145;DHT22;27813;43.516;11.890;2023-11-21T12:39:44;18.80;96.60
42145;DHT22;27813;43.516;11.890;2023-11-21T12:43:49;18.60;96.50
42145;DHT22;27813;43.516;11.890;2023-11-21T12:48:05;18.40;96.50
42145;DHT22;27813;43.516;11.890;2023-11-21T12:52:16;18.00;96.10
42145;DHT22;27813;43.516;11.890;2023-11-21T12:56:21;17.50;96.30
42145;DHT22;27813;43.516;11.890;2023-11-21T13:00:35;17.20;96.70
42145;DHT22;27813;43.516;11.890;2023-11-21T13:04:44;16.90;96.80
42145;DHT22;27813;43.516;11.890;2023-11-21T13:08:56;16.60;97.10
42145;DHT22;27813;43.516;11.890;2023-11-21T13:13:07;16.40;97.00
42145;DHT22;27813;43.516;11.890;2023-11-21T13:17:23;16.20;97.30
42145;DHT22;27813;43.516;11.890;2023-11-21T13:21:29;16.20;97.60
42145;DHT22;27813;43.516;11.890;2023-11-21T13:25:33;16.10;97.60
42145;DHT22;27813;43.516;11.890;2023-11-21T13:29:39;16.00;97.50
42145;DHT22;27813;43.516;11.890;2023-11-21T13:33:44;16.00;98.00
42145;DHT22;27813;43.516;11.890;2023-11-21T13:37:54;16.00;98.20
42145;DHT22;27813;43.516;11.890;2023-11-21T13:42:01;16.00;98.20
42145;DHT22;27813;43.516;11.890;2023-11-21T13:46:08;15.80;97.80
42145;DHT22;27813;43.516;11.890;2023-11-21T13:50:26;15.30;96.20
42145;DHT22;27813;43.516;11.890;2023-11-21T13:54:42;14.90;96.70
42145;DHT22;27813;43.516;11.890;2023-11-21T13:58:46;14.70;97.30
42145;DHT22;27813;43.516;11.890;2023-11-21T14:02:57;14.60;97.70
42145;DHT22;27813;43.516;11.890;2023-11-21T14:07:05;14.60;98.00
42145;DHT22;27813;43.516;11.890;2023-11-21T14:11:32;14.60;98.10
42145;DHT22;27813;43.516;11.890;2023-11-21T14:15:45;14.60;98.20
42145;DHT22;27813;43.516;11.890;2023-11-21T14:19:54;14.60;98.20
42145;DHT22;27813;43.516;11.890;2023-11-21T14:24:01;14.60;98.20
42145;DHT22;27813;43.516;11.890;2023-11-21T14:28:06;14.60;98.20
42145;DHT22;27813;43.516;11.890;2023-11-21T14:32:11;14.50;98.10
42145;DHT22;27813;43.516;11.890;2023-11-21T14:36:16;14.50;98.10
42145;DHT22;27813;43.516;11.890;2023-11-21T14:40:21;14.50;98.30
42145;DHT22;27813;43.516;11.890;2023-11-21T14:44:28;14.50;98.30
42145;DHT22;27813;43.516;11.890;2023-11-21T14:48:38;14.70;98.50
42145;DHT22;27813;43.516;11.890;2023-11-21T14:52:46;14.70;98.50
42145;DHT22;27813;43.516;11.890;2023-11-21T14:57:02;14.70;98.40
42145;DHT22;27813;43.516;11.890;2023-11-21T15:01:09;14.60;98.20
42145;DHT22;27813;43.516;11.890;2023-11-21T15:05:14;14.50;98.00
42145;DHT22;27813;43.516;11.890;2023-11-21T15:09:20;14.30;98.00
42145;DHT22;27813;43.516;11.890;2023-11-21T15:13:40;14.20;97.90
42145;DHT22;27813;43.516;11.890;2023-11-21T15:17:47;14.00;97.90
42145;DHT22;27813;43.516;11.890;2023-11-21T15:21:52;13.90;97.80
42145;DHT22;27813;43.516;11.890;2023-11-21T15:25:56;13.70;97.80
42145;DHT22;27813;43.516;11.890;2023-11-21T15:30:01;13.60;97.90
42145;DHT22;27813;43.516;11.890;2023-11-21T15:34:08;13.50;97.80
42145;DHT22;27813;43.516;11.890;2023-11-21T15:38:12;13.40;97.90
42145;DHT22;27813;43.516;11.890;2023-11-21T15:42:17;13.30;97.90
42145;DHT22;27813;43.516;11.890;2023-11-21T15:46:24;13.20;97.90
42145;DHT22;27813;43.516;11.890;2023-11-21T15:50:28;13.10;97.90
42145;DHT22;27813;43.516;11.890;2023-11-21T15:54:38;13.00;98.00
42145;DHT22;27813;43.516;11.890;2023-11-21T15:58:46;13.00;98.00
42145;DHT22;27813;43.516;11.890;2023-11-21T16:02:53;12.90;98.00
42145;DHT22;27813;43.516;11.890;2023-11-21T16:06:59;12.80;98.00
42145;DHT22;27813;43.516;11.890;2023-11-21T16:11:04;12.70;98.10
42145;DHT22;27813;43.516;11.890;2023-11-21T16:15:08;12.80;98.20
42145;DHT22;27813;43.516;11.890;2023-11-21T16:19:14;12.70;98.20
42145;DHT22;27813;43.516;11.890;2023-11-21T16:23:19;12.70;98.20
42145;DHT22;27813;43.516;11.890;2023-11-21T16:27:24;12.70;98.20
42145;DHT22;27813;43.516;11.890;2023-11-21T16:31:29;12.60;98.10
42145;DHT22;27813;43.516;11.890;2023-11-21T16:35:35;12.50;98.00
42145;DHT22;27813;43.516;11.890;2023-11-21T16:39:43;12.50;98.10
42145;DHT22;27813;43.516;11.890;2023-11-21T16:43:48;12.40;98.10
42145;DHT22;27813;43.516;11.890;2023-11-21T16:47:53;12.40;98.20
42145;DHT22;27813;43.516;11.890;2023-11-21T16:51:57;12.50;98.40
42145;DHT22;27813;43.516;11.890;2023-11-21T16:56:02;12.40;98.30
42145;DHT22;27813;43.516;11.890;2023-11-21T17:00:08;12.30;97.90
42145;DHT22;27813;43.516;11.890;2023-11-21T17:04:16;12.10;97.40
42145;DHT22;27813;43.516;11.890;2023-11-21T17:08:24;11.80;96.60
42145;DHT22;27813;43.516;11.890;2023-11-21T17:12:29;11.40;96.30
42145;DHT22;27813;43.516;11.890;2023-11-21T17:16:35;11.00;96.30
42145;DHT22;27813;43.516;11.890;2023-11-21T17:20:40;10.90;96.60
42145;DHT22;27813;43.516;11.890;2023-11-21T17:24:45;10.60;96.80
42145;DHT22;27813;43.516;11.890;2023-11-21T17:28:51;10.40;97.10
42145;DHT22;27813;43.516;11.890;2023-11-21T17:32:57;10.40;97.30
42145;DHT22;27813;43.516;11.890;2023-11-21T17:37:02;10.30;97.50
42145;DHT22;27813;43.516;11.890;2023-11-21T17:41:08;10.20;97.60
42145;DHT22;27813;43.516;11.890;2023-11-21T17:45:16;10.10;97.80
42145;DHT22;27813;43.516;11.890;2023-11-21T17:49:21;10.10;97.80
42145;DHT22;27813;43.516;11.890;2023-11-21T17:53:26;10.00;97.90
42145;DHT22;27813;43.516;11.890;2023-11-21T17:57:32;10.00;98.00
42145;DHT22;27813;43.516;11.890;2023-11-21T18:01:38;10.00;98.00
42145;DHT22;27813;43.516;11.890;2023-11-21T18:05:46;9.90;98.00
42145;DHT22;27813;43.516;11.890;2023-11-21T18:09:54;9.90;98.00
42145;DHT22;27813;43.516;11.890;2023-11-21T18:14:01;9.90;98.20
42145;DHT22;27813;43.516;11.890;2023-11-21T18:18:11;9.80;98.20
42145;DHT22;27813;43.516;11.890;2023-11-21T18:22:17;9.80;98.20
42145;DHT22;27813;43.516;11.890;2023-11-21T18:26:21;9.80;98.30
42145;DHT22;27813;43.516;11.890;2023-11-21T18:30:26;9.80;98.30
42145;DHT22;27813;43.516;11.890;2023-11-21T18:34:31;9.70;98.30
42145;DHT22;27813;43.516;11.890;2023-11-21T18:38:37;9.70;98.30
42145;DHT22;27813;43.516;11.890;2023-11-21T18:42:42;9.70;98.30
42145;DHT22;27813;43.516;11.890;2023-11-21T18:46:51;9.60;98.30
42145;DHT22;27813;43.516;11.890;2023-11-21T18:50:59;9.50;98.30
42145;DHT22;27813;43.516;11.890;2023-11-21T18:55:08;9.50;98.40
42145;DHT22;27813;43.516;11.890;2023-11-21T18:59:12;9.50;98.40
42145;DHT22;27813;43.516;11.890;2023-11-21T19:03:17;9.50;98.40
42145;DHT22;27813;43.516;11.890;2023-11-21T19:07:23;9.50;98.40
42145;DHT22;27813;43.516;11.890;2023-11-21T19:11:31;9.50;98.40
42145;DHT22;27813;43.516;11.890;2023-11-21T19:15:36;9.50;98.40
42145;DHT22;27813;43.516;11.890;2023-11-21T19:19:40;9.50;98.50
42145;DHT22;27813;43.516;11.890;2023-11-21T19:23:46;9.50;98.40
42145;DHT22;27813;43.516;11.890;2023-11-21T19:27:51;9.50;98.50
42145;DHT22;27813;43.516;11.890;2023-11-21T19:31:55;9.40;98.50
42145;DHT22;27813;43.516;11.890;2023-11-21T19:36:00;9.40;98.40
42145;DHT22;27813;43.516;11.890;2023-11-21T19:40:06;9.20;98.20
42145;DHT22;27813;43.516;11.890;2023-11-21T19:44:11;9.20;98.20
42145;DHT22;27813;43.516;11.890;2023-11-21T19:48:22;9.10;98.20
42145;DHT22;27813;43.516;11.890;2023-11-21T19:52:28;9.10;98.30
42145;DHT22;27813;43.516;11.890;2023-11-21T19:56:34;9.10;98.30
42145;DHT22;27813;43.516;11.890;2023-11-21T20:00:40;9.00;98.40
42145;DHT22;27813;43.516;11.890;2023-11-21T20:04:45;9.00;98.40
42145;DHT22;27813;43.516;11.890;2023-11-21T20:08:52;9.00;98.40
42145;DHT22;27813;43.516;11.890;2023-11-21T20:12:59;9.00;98.40
42145;DHT22;27813;43.516;11.890;2023-11-21T20:17:10;9.00;98.50
42145;DHT22;27813;43.516;11.890;2023-11-21T20:21:21;9.00;98.50
42145;DHT22;27813;43.516;11.890;2023-11-21T20:25:27;9.00;98.40
42145;DHT22;27813;43.516;11.890;2023-11-21T20:29:34;9.00;98.50
42145;DHT22;27813;43.516;11.890;2023-11-21T20:33:44;8.90;98.50
42145;DHT22;27813;43.516;11.890;2023-11-21T20:37:50;8.90;98.50
42145;DHT22;27813;43.516;11.890;2023-11-21T20:41:57;9.00;98.50
42145;DHT22;27813;43.516;11.890;2023-11-21T20:46:03;9.00;98.60
42145;DHT22;27813;43.516;11.890;2023-11-21T20:50:08;9.00;98.50
42145;DHT22;27813;43.516;11.890;2023-11-21T20:54:13;9.00;98.50
42145;DHT22;27813;43.516;11.890;2023-11-21T20:58:19;9.00;98.50
42145;DHT22;27813;43.516;11.890;2023-11-21T21:02:26;9.00;98.50
42145;DHT22;27813;43.516;11.890;2023-11-21T21:06:31;9.00;98.50
42145;DHT22;27813;43.516;11.890;2023-11-21T21:10:36;8.90;98.50
42145;DHT22;27813;43.516;11.890;2023-11-21T21:14:41;8.90;98.50
42145;DHT22;27813;43.516;11.890;2023-11-21T21:18:46;8.90;98.50
42145;DHT22;27813;43.516;11.890;2023-11-21T21:22:54;8.90;98.50
42145;DHT22;27813;43.516;11.890;2023-11-21T21:27:06;8.90;98.50
42145;DHT22;27813;43.516;11.890;2023-11-21T21:31:11;8.90;98.60
42145;DHT22;27813;43.516;11.890;2023-11-21T21:35:16;8.90;98.60
42145;DHT22;27813;43.516;11.890;2023-11-21T21:39:26;8.90;98.60
42145;DHT22;27813;43.516;11.890;2023-11-21T21:43:32;8.90;98.60
42145;DHT22;27813;43.516;11.890;2023-11-21T21:48:08;8.90;98.60
42145;DHT22;27813;43.516;11.890;2023-11-21T21:52:14;8.90;98.60
42145;DHT22;27813;43.516;11.890;2023-11-21T21:56:21;8.90;98.60
42145;DHT22;27813;43.516;11.890;2023-11-21T22:00:27;8.90;98.60
42145;DHT22;27813;43.516;11.890;2023-11-21T22:04:35;8.90;98.70
42145;DHT22;27813;43.516;11.890;2023-11-21T22:08:43;8.90;98.70
42145;DHT22;27813;43.516;11.890;2023-11-21T22:12:47;8.90;98.70
42145;DHT22;27813;43.516;11.890;2023-11-21T22:16:56;8.90;98.70
42145;DHT22;27813;43.516;11.890;2023-11-21T22:21:12;8.90;98.70
42145;DHT22;27813;43.516;11.890;2023-11-21T22:25:17;8.90;98.70
42145;DHT22;27813;43.516;11.890;2023-11-21T22:29:23;8.90;98.70
42145;DHT22;27813;43.516;11.890;2023-11-21T22:33:30;8.80;98.70
42145;DHT22;27813;43.516;11.890;2023-11-21T22:37:35;8.80;98.70
42145;DHT22;27813;43.516;11.890;2023-11-21T22:41:44;8.80;98.70
42145;DHT22;27813;43.516;11.890;2023-11-21T22:45:52;8.80;98.70
42145;DHT22;27813;43.516;11.890;2023-11-21T22:49:56;8.80;98.80
42145;DHT22;27813;43.516;11.890;2023-11-21T22:54:05;8.80;98.70
42145;DHT22;27813;43.516;11.890;2023-11-21T22:58:13;8.90;98.70
42145;DHT22;27813;43.516;11.890;2023-11-21T23:02:20;8.90;98.80
42145;DHT22;27813;43.516;11.890;2023-11-21T23:06:32;8.90;98.80
42145;DHT22;27813;43.516;11.890;2023-11-21T23:10:37;8.80;98.70
42145;DHT22;27813;43.516;11.890;2023-11-21T23:14:43;8.90;98.80
42145;DHT22;27813;43.516;11.890;2023-11-21T23:18:49;8.80;98.70
42145;DHT22;27813;43.516;11.890;2023-11-21T23:22:56;8.80;98.70
42145;DHT22;27813;43.516;11.890;2023-11-21T23:27:05;8.90;98.80
42145;DHT22;27813;43.516;11.890;2023-11-21T23:31:10;8.80;98.80
42145;DHT22;27813;43.516;11.890;2023-11-21T23:35:17;8.80;98.80
42145;DHT22;27813;43.516;11.890;2023-11-21T23:39:23;8.90;98.80
42145;DHT22;27813;43.516;11.890;2023-11-21T23:43:28;8.90;98.80
42145;DHT22;27813;43.516;11.890;2023-11-21T23:47:33;8.90;98.80
42145;DHT22;27813;43.516;11.890;2023-11-21T23:51:40;8.90;98.80
42145;DHT22;27813;43.516;11.890;2023-11-21T23:55:48;8.90;98.80
42145;DHT22;27813;43.516;11.890;2023-11-21T23:59:56;8.90;98.80
